Time;durP1;ratioP1;P1;durP2;ratioP2;P2;SDS_P1;SDS_P2;PMS_P1;PMS_P2;Temp;Humidity;BMP_temperature;BMP_pressure;BME280_temperature;BME280_humidity;BME280_pressure;Samples;Min_cycle;Max_cycle;Signal;HPM_P1;HPM_P2
2022/09/26 00:09:00;;;;;;;11.27;6.28;;;;;;;10.03;100.00;100945.94;6080727;23;20492;-90
2022/09/26 00:14:28;;;;;;;10.57;6.18;;;;;;;10.08;100.00;100943.28;6079879;23;20444;-90
2022/09/26 00:17:02;;;;;;;10.95;5.90;;;;;;;10.08;100.00;100951.91;6066135;23;20322;-90
2022/09/26 00:19:57;;;;;;;9.18;5.93;;;;;;;10.19;100.00;100959.47;6090026;23;20010;-90
2022/09/26 00:22:25;;;;;;;11.13;6.23;;;;;;;10.06;100.00;100932.09;6090858;23;20026;-90
2022/09/26 00:25:03;;;;;;;10.45;6.35;;;;;;;10.14;100.00;100941.44;6122636;23;20448;-90
2022/09/26 00:30:38;;;;;;;10.13;6.30;;;;;;;10.23;100.00;100940.44;6114191;23;20037;-90
2022/09/26 00:33:16;;;;;;;13.15;6.47;;;;;;;10.25;100.00;100936.91;6121789;23;20482;-90
2022/09/26 00:35:58;;;;;;;13.77;6.90;;;;;;;10.27;100.00;100932.53;6121122;23;20017;-90
2022/09/26 00:38:31;;;;;;;12.00;6.60;;;;;;;10.13;100.00;100903.47;6121988;23;20005;-90
2022/09/26 00:41:20;;;;;;;12.70;6.78;;;;;;;10.14;100.00;100897.41;6121174;23;20073;-89
2022/09/26 00:44:00;;;;;;;10.52;6.22;;;;;;;10.23;100.00;100901.56;6118098;23;20009;-90
2022/09/26 00:47:13;;;;;;;11.48;6.43;;;;;;;10.24;100.00;100888.56;6121959;23;20021;-89
2022/09/26 00:49:56;;;;;;;13.45;6.68;;;;;;;10.40;100.00;100911.56;6121337;23;20005;-89
2022/09/26 00:52:54;;;;;;;11.38;6.47;;;;;;;10.37;100.00;100898.69;6121924;23;20009;-90
2022/09/26 00:55:36;;;;;;;11.30;6.25;;;;;;;10.46;100.00;100906.22;6117866;23;20077;-90
2022/09/26 00:58:13;;;;;;;12.13;6.47;;;;;;;10.43;99.98;100886.44;6119616;23;20341;-89
2022/09/26 01:03:41;;;;;;;13.75;6.82;;;;;;;10.50;99.87;100885.41;6121249;23;20017;-89
2022/09/26 01:06:38;;;;;;;11.40;6.68;;;;;;;10.42;99.80;100865.72;6121708;23;20344;-90
2022/09/26 01:09:12;;;;;;;15.05;6.93;;;;;;;10.51;100.00;100881.06;6120429;23;20006;-91
2022/09/26 01:11:47;;;;;;;13.70;6.85;;;;;;;10.49;99.59;100868.16;6121292;23;20005;-89
2022/09/26 01:14:23;;;;;;;12.07;7.22;;;;;;;10.41;99.32;100849.34;6120639;23;20030;-90
2022/09/26 01:16:52;;;;;;;12.35;6.95;;;;;;;10.32;99.25;100836.56;6120489;23;20006;-89
2022/09/26 01:19:49;;;;;;;10.68;6.55;;;;;;;10.46;99.16;100855.25;6119760;23;20041;-89
2022/09/26 01:22:14;;;;;;;11.60;6.88;;;;;;;10.46;99.90;100846.63;6120663;23;20033;-88
2022/09/26 01:25:30;;;;;;;;;;;;;;;;;;;;;
2022/09/26 01:28:38;;;;;;;13.00;6.70;;;;;;;10.48;99.24;100837.09;6122400;23;20081;-90
2022/09/26 01:31:27;;;;;;;12.60;6.85;;;;;;;10.30;98.83;100794.34;6118172;23;20005;-90
2022/09/26 01:34:10;;;;;;;11.48;6.18;;;;;;;10.46;99.12;100816.38;6118479;23;20033;-90
2022/09/26 01:36:48;;;;;;;12.68;6.78;;;;;;;10.49;99.03;100818.06;6119589;23;20010;-89
2022/09/26 01:39:19;;;;;;;10.10;6.13;;;;;;;10.50;98.77;100806.81;6118909;23;20020;-89
2022/09/26 01:42:35;;;;;;;11.80;6.25;;;;;;;10.51;99.62;100800.72;6122324;23;20002;-90
2022/09/26 01:45:41;;;;;;;11.55;5.97;;;;;;;10.39;98.67;100767.31;6117219;23;20367;-89
2022/09/26 01:48:17;;;;;;;11.68;5.50;;;;;;;10.55;97.89;100786.81;6094814;23;20010;-89
2022/09/26 01:51:02;;;;;;;12.30;5.93;;;;;;;10.41;97.97;100753.47;6118680;23;20348;-92
2022/09/26 01:53:49;;;;;;;10.50;5.28;;;;;;;10.57;97.66;100779.84;6118571;23;20002;-91
2022/09/26 01:56:26;;;;;;;12.05;5.53;;;;;;;10.56;97.92;100775.56;6118627;23;20034;-92
2022/09/26 01:59:11;;;;;;;11.23;5.47;;;;;;;10.45;97.25;100744.72;6119915;23;20016;-92
2022/09/26 02:01:44;;;;;;;9.18;5.38;;;;;;;10.44;96.69;100739.59;6120424;23;20010;-92
2022/09/26 02:04:35;;;;;;;9.73;5.40;;;;;;;10.39;97.13;100725.88;6120121;23;20012;-92
2022/09/26 02:07:27;;;;;;;8.45;4.90;;;;;;;10.46;96.90;100725.69;6120241;23;20036;-92
2022/09/26 02:10:02;;;;;;;8.35;5.28;;;;;;;10.50;96.47;100731.66;6120243;23;20029;-91
2022/09/26 02:12:32;;;;;;;8.90;5.00;;;;;;;10.37;96.33;100712.13;6120096;23;20030;-91
2022/09/26 02:15:05;;;;;;;10.57;5.20;;;;;;;10.36;97.39;100705.25;6119308;23;20331;-91
2022/09/26 02:17:39;;;;;;;7.80;4.80;;;;;;;10.34;97.63;100707.88;6121042;23;20483;-91
2022/09/26 02:20:11;;;;;;;;;;;;;;;10.57;97.19;100720.25;6120387;23;20017;-92
2022/09/26 02:22:37;;;;;;;9.45;4.93;;;;;;;10.52;96.24;100715.16;6119255;23;19917;-92
2022/09/26 02:25:04;;;;;;;9.82;4.90;;;;;;;10.50;96.16;100716.09;6119883;23;20006;-91
2022/09/26 02:27:30;;;;;;;9.95;4.55;;;;;;;10.50;96.21;100710.94;6118734;23;20021;-92
2022/09/26 02:29:56;;;;;;;8.98;4.78;;;;;;;10.41;96.21;100686.09;6119503;23;20009;-90
2022/09/26 02:32:43;;;;;;;7.95;4.55;;;;;;;10.51;95.82;100691.88;6121343;23;20021;-92
2022/09/26 02:38:01;;;;;;;9.48;4.50;;;;;;;10.37;96.06;100673.25;6120794;23;20021;-91
2022/09/26 02:40:41;;;;;;;9.57;4.50;;;;;;;10.44;95.82;100672.22;6119074;23;20523;-91
2022/09/26 02:43:28;;;;;;;12.20;4.72;;;;;;;10.54;95.38;100679.69;6117940;23;20480;-91
2022/09/26 02:46:07;;;;;;;12.65;4.47;;;;;;;10.55;94.96;100683.16;6116368;23;20032;-91
2022/09/26 02:49:08;;;;;;;8.43;4.32;;;;;;;10.57;95.51;100682.22;6119975;23;20321;-91
2022/09/26 02:51:43;;;;;;;7.95;4.20;;;;;;;10.57;95.06;100678.78;6121720;23;20002;-92
2022/09/26 02:54:45;;;;;;;8.32;4.38;;;;;;;10.58;94.87;100677.84;6119235;23;20006;-91
2022/09/26 02:57:28;;;;;;;11.07;4.28;;;;;;;10.57;94.88;100668.41;6119339;23;20010;-91
2022/09/26 03:00:06;;;;;;;9.88;4.40;;;;;;;10.55;94.75;100657.22;6118429;23;20069;-92
2022/09/26 03:03:12;;;;;;;12.27;4.47;;;;;;;10.58;95.23;100654.53;6119946;23;20002;-92
2022/09/26 03:05:41;;;;;;;8.10;4.05;;;;;;;10.58;95.21;100649.34;6120349;23;20002;-92
2022/09/26 03:08:20;;;;;;;8.95;4.35;;;;;;;10.58;94.78;100657.13;6120435;23;20017;-91
2022/09/26 03:10:57;;;;;;;9.35;4.32;;;;;;;10.50;94.71;100641.81;6119649;23;20009;-92
2022/09/26 03:13:28;;;;;;;11.23;4.68;;;;;;;10.53;93.94;100635.66;6118707;23;20010;-92
2022/09/26 03:16:01;;;;;;;9.70;4.10;;;;;;;10.47;94.41;100628.06;6119677;23;20010;-92
2022/09/26 03:18:34;;;;;;;7.72;4.15;;;;;;;10.57;94.74;100637.31;6121296;23;20009;-90
2022/09/26 03:21:13;;;;;;;7.50;4.20;;;;;;;10.61;95.52;100641.50;6124630;23;20456;-91
2022/09/26 03:23:40;;;;;;;8.32;3.80;;;;;;;10.43;95.29;100611.75;6097232;23;20005;-92
2022/09/26 03:26:14;;;;;;;9.77;3.55;;;;;;;10.52;95.04;100621.00;6123702;23;20459;-91
2022/09/26 03:28:40;;;;;;;10.75;3.80;;;;;;;10.43;95.18;100601.41;6122796;23;20012;-91
2022/09/26 03:31:11;;;;;;;8.63;3.63;;;;;;;10.55;95.33;100618.34;6097259;23;20010;-91
2022/09/26 03:33:39;;;;;;;8.07;3.90;;;;;;;10.53;94.53;100614.94;6122423;23;20526;-91
2022/09/26 03:36:10;;;;;;;9.20;3.60;;;;;;;10.37;95.08;100587.75;6096305;23;20034;-92
2022/09/26 03:38:47;;;;;;;9.43;3.70;;;;;;;10.42;95.25;100583.31;6123874;23;20005;-92
2022/09/26 03:41:15;;;;;;;9.43;3.65;;;;;;;10.52;96.51;100597.69;6097820;23;20010;-91
2022/09/26 03:43:43;;;;;;;8.45;3.88;;;;;;;10.30;95.38;100562.00;6097180;23;20593;-90
2022/09/26 03:46:14;;;;;;;7.82;3.70;;;;;;;10.48;94.42;100588.31;6121087;23;19998;-91
2022/09/26 03:48:40;;;;;;;6.93;4.05;;;;;;;10.47;94.87;100590.03;6097917;23;20594;-91
2022/09/26 03:51:08;;;;;;;8.55;4.10;;;;;;;10.45;94.80;100586.63;6097603;23;20005;-91
2022/09/26 03:53:36;;;;;;;8.35;3.90;;;;;;;10.43;94.95;100578.09;6124316;23;20002;-91
2022/09/26 03:56:15;;;;;;;5.78;3.55;;;;;;;10.44;95.27;100571.97;6096329;23;20006;-92
2022/09/26 03:58:43;;;;;;;8.38;3.67;;;;;;;10.43;95.39;100578.09;6097100;23;20448;-93
2022/09/26 04:01:12;;;;;;;7.75;3.75;;;;;;;10.43;94.24;100572.91;6123142;23;20460;-93
2022/09/26 04:03:42;;;;;;;9.18;3.75;;;;;;;10.32;94.59;100550.75;6122807;23;20030;-93
2022/09/26 04:06:24;;;;;;;7.45;3.55;;;;;;;10.28;94.40;100542.22;6096519;23;20001;-92
2022/09/26 04:08:51;;;;;;;8.95;4.05;;;;;;;10.39;94.49;100553.13;6122402;23;20009;-91
2022/09/26 04:11:23;;;;;;;6.40;3.40;;;;;;;10.34;94.14;100546.38;6122343;23;20013;-93
2022/09/26 04:13:49;;;;;;;6.03;3.50;;;;;;;10.39;94.41;100549.69;6097410;23;20010;-91
2022/09/26 04:16:19;;;;;;;7.30;3.42;;;;;;;10.32;94.68;100536.06;6096496;23;20058;-92
2022/09/26 04:18:44;;;;;;;7.65;3.25;;;;;;;10.39;94.74;100531.53;6123285;23;20028;-92
2022/09/26 04:21:12;;;;;;;7.03;3.90;;;;;;;10.32;94.83;100520.50;6122138;23;20018;-91
2022/09/26 04:23:42;;;;;;;6.00;3.80;;;;;;;10.38;95.26;100519.47;6098292;23;20006;-92
2022/09/26 04:26:13;;;;;;;8.07;3.78;;;;;;;10.39;94.51;100516.84;6095564;23;20017;-93
2022/09/26 04:28:40;;;;;;;7.53;3.50;;;;;;;10.40;96.28;100500.41;6097344;23;20085;-89
2022/09/26 04:31:07;;;;;;;8.07;3.33;;;;;;;10.39;95.35;100492.69;6097026;23;20459;-89
2022/09/26 04:33:33;;;;;;;11.52;3.80;;;;;;;10.32;94.64;100486.81;6096346;23;20325;-89
2022/09/26 04:36:04;;;;;;;7.07;3.55;;;;;;;10.30;94.51;100479.09;6121991;23;20077;-89
2022/09/26 04:38:36;;;;;;;7.32;3.45;;;;;;;10.30;93.84;100473.09;6121401;23;20627;-89
2022/09/26 04:41:05;;;;;;;9.75;4.05;;;;;;;10.38;95.24;100481.47;6121714;23;20429;-89
2022/09/26 04:43:30;;;;;;;8.73;3.80;;;;;;;10.36;96.05;100464.28;6122500;23;20025;-89
2022/09/26 04:45:56;;;;;;;11.18;3.50;;;;;;;10.40;96.33;100476.25;6097302;23;20008;-89
2022/09/26 04:48:21;;;;;;;8.95;3.50;;;;;;;10.36;95.99;100456.53;6096006;23;20013;-89
2022/09/26 04:50:46;;;;;;;14.88;3.92;;;;;;;10.37;94.39;100450.44;6122687;23;20009;-89
2022/09/26 04:53:12;;;;;;;9.30;4.05;;;;;;;10.37;95.56;100447.84;6096427;23;20040;-89
2022/09/26 04:55:43;;;;;;;6.78;3.60;;;;;;;10.37;96.24;100443.53;6095795;23;20436;-89
2022/09/26 04:58:08;;;;;;;7.93;3.38;;;;;;;10.39;95.48;100435.69;6095048;23;20010;-89
2022/09/26 05:00:34;;;;;;;7.20;3.25;;;;;;;10.37;94.97;100425.38;6121483;23;20002;-89
2022/09/26 05:02:59;;;;;;;8.68;3.30;;;;;;;10.36;95.14;100415.06;6119246;23;20006;-89
2022/09/26 05:05:25;;;;;;;7.10;3.30;;;;;;;10.33;95.29;100420.31;6095828;23;20002;-89
2022/09/26 05:07:51;;;;;;;7.63;3.42;;;;;;;10.35;96.25;100422.00;6122039;23;20022;-89
2022/09/26 05:10:16;;;;;;;9.45;3.30;;;;;;;10.35;96.67;100419.41;6096157;23;20335;-89
2022/09/26 05:12:42;;;;;;;8.82;3.33;;;;;;;10.32;95.26;100416.88;6094632;23;20400;-89
2022/09/26 05:15:08;;;;;;;6.18;3.10;;;;;;;10.32;96.63;100408.25;6121947;23;20009;-89
2022/09/26 05:17:37;;;;;;;8.40;3.10;;;;;;;10.25;96.51;100399.81;6095897;23;20006;-90
2022/09/26 05:20:07;;;;;;;5.97;3.03;;;;;;;10.25;97.15;100398.09;6091152;23;20017;-88
2022/09/26 05:22:33;;;;;;;6.38;2.97;;;;;;;10.27;97.02;100395.44;6121249;23;20144;-89
2022/09/26 05:27:56;;;;;;;;;;;;;;;10.30;96.42;100387.59;6120198;23;20029;-89
2022/09/26 05:30:53;;;;;;;10.75;4.40;;;;;;;10.10;97.86;100362.22;6094934;23;20258;-90
2022/09/26 05:33:23;;;;;;;9.38;3.38;;;;;;;10.07;98.60;100354.56;6094773;23;20010;-89
2022/09/26 05:35:52;;;;;;;7.88;3.42;;;;;;;10.09;97.96;100357.97;6094448;23;20010;-90
2022/09/26 05:38:31;;;;;;;8.32;3.70;;;;;;;9.98;98.70;100339.28;6092551;23;20014;-89
2022/09/26 05:40:59;;;;;;;6.90;3.60;;;;;;;10.14;99.69;100376.81;6095497;23;20365;-89
2022/09/26 05:43:35;;;;;;;6.50;3.58;;;;;;;10.14;99.25;100373.38;6096036;23;20017;-89
2022/09/26 05:46:06;;;;;;;9.25;3.70;;;;;;;10.13;99.34;100369.94;6095010;23;20009;-89
2022/09/26 05:48:39;;;;;;;9.43;3.65;;;;;;;10.12;99.01;100372.56;6095383;23;20006;-89
2022/09/26 05:51:13;;;;;;;8.82;3.95;;;;;;;10.02;98.35;100356.47;6119321;23;20006;-90
2022/09/26 05:53:41;;;;;;;8.18;3.80;;;;;;;9.94;98.75;100334.25;6094081;23;20008;-89
2022/09/26 05:56:07;;;;;;;9.57;3.78;;;;;;;9.95;98.75;100342.00;6118554;23;20018;-89
2022/09/26 05:58:46;;;;;;;8.85;3.72;;;;;;;10.06;97.62;100350.28;6095259;23;20010;-92
2022/09/26 06:01:18;;;;;;;10.57;3.92;;;;;;;10.13;99.24;100361.31;6095314;23;20392;-91
2022/09/26 06:03:47;;;;;;;7.57;4.18;;;;;;;10.04;99.60;100338.25;6122871;23;20002;-92
2022/09/26 06:06:17;;;;;;;7.90;3.70;;;;;;;10.09;98.65;100342.44;6095043;23;20232;-91
2022/09/26 06:08:46;;;;;;;7.32;3.65;;;;;;;10.14;98.81;100350.91;6095923;23;20002;-93
2022/09/26 06:11:29;;;;;;;10.10;3.92;;;;;;;10.13;98.18;100325.06;6121353;23;20002;-92
2022/09/26 06:13:59;;;;;;;9.35;3.75;;;;;;;10.06;98.86;100315.78;6095824;23;20010;-92
2022/09/26 06:16:53;;;;;;;11.40;4.18;;;;;;;10.03;98.39;100290.00;6121372;23;20396;-93
2022/09/26 06:19:31;;;;;;;10.95;4.38;;;;;;;10.01;98.45;100281.41;6069130;23;20009;-92
2022/09/26 06:21:59;;;;;;;12.30;4.53;;;;;;;10.02;98.38;100271.00;6108341;23;20022;-91
2022/09/26 06:24:27;;;;;;;8.88;4.07;;;;;;;10.10;99.32;100278.56;6120199;23;20067;-93
2022/09/26 06:26:55;;;;;;;9.63;4.13;;;;;;;10.07;99.46;100274.31;6118723;23;20009;-93
2022/09/26 06:29:28;;;;;;;12.45;4.55;;;;;;;10.22;99.02;100278.19;6120150;23;20089;-92
2022/09/26 06:31:56;;;;;;;8.00;4.20;;;;;;;10.11;99.31;100251.72;6122437;23;20577;-91
2022/09/26 06:34:21;;;;;;;14.60;4.50;;;;;;;10.30;100.00;100273.63;6120687;23;20017;-91
2022/09/26 06:36:47;;;;;;;10.20;4.15;;;;;;;10.23;99.71;100252.25;6120638;23;20006;-92
2022/09/26 06:39:13;;;;;;;12.55;4.53;;;;;;;10.28;98.68;100252.09;6120027;23;20009;-92
2022/09/26 06:41:41;;;;;;;7.03;4.05;;;;;;;10.36;98.60;100265.66;6121269;23;20006;-92
2022/09/26 06:44:10;;;;;;;11.02;4.10;;;;;;;10.18;97.38;100223.03;6122514;23;20009;-91
2022/09/26 06:46:35;;;;;;;9.10;3.97;;;;;;;10.36;97.93;100244.09;6121056;23;20466;-92
2022/09/26 06:49:01;;;;;;;9.73;4.07;;;;;;;10.39;97.63;100233.59;6120713;23;20002;-92
2022/09/26 06:51:32;;;;;;;9.02;4.00;;;;;;;10.37;98.96;100217.28;6121335;23;20037;-93
2022/09/26 06:53:59;;;;;;;11.10;4.00;;;;;;;10.44;97.91;100221.38;6122002;23;20009;-92
2022/09/26 06:56:29;;;;;;;9.70;3.72;;;;;;;10.48;97.71;100217.75;6120893;23;20010;-92
2022/09/26 06:59:15;;;;;;;7.60;4.07;;;;;;;10.42;98.09;100197.25;6120788;23;20010;-93
2022/09/26 07:01:43;;;;;;;9.38;4.00;;;;;;;10.37;99.26;100176.69;6120667;23;20005;-93
2022/09/26 07:04:12;;;;;;;8.15;4.28;;;;;;;10.46;99.06;100180.69;6119484;23;20545;-91
2022/09/26 07:06:37;;;;;;;8.88;4.13;;;;;;;10.54;98.84;100182.13;6122939;23;20025;-91
2022/09/26 07:09:03;;;;;;;8.52;3.80;;;;;;;10.51;97.09;100165.81;6120531;23;20340;-90
2022/09/26 07:11:48;;;;;;;9.02;4.18;;;;;;;10.56;97.64;100161.34;6120256;23;20356;-90
2022/09/26 07:14:19;;;;;;;9.65;3.58;;;;;;;10.76;96.82;100195.19;6120097;23;20068;-89
2022/09/26 07:16:50;;;;;;;7.35;3.33;;;;;;;10.62;95.10;100171.50;6120895;23;20006;-90
2022/09/26 07:19:29;;;;;;;9.05;3.83;;;;;;;10.67;97.08;100157.47;6121991;23;20395;-89
2022/09/26 07:21:55;;;;;;;9.93;3.70;;;;;;;10.67;96.39;100151.44;6120303;23;20018;-89
2022/09/26 07:24:20;;;;;;;7.75;3.42;;;;;;;10.80;96.51;100176.03;6120790;23;20014;-89
2022/09/26 07:26:53;;;;;;;10.27;3.80;;;;;;;10.84;97.80;100162.06;6120476;23;20029;-90
2022/09/26 07:29:22;;;;;;;8.18;3.50;;;;;;;10.67;95.88;100130.72;6121460;23;20005;-90
2022/09/26 07:31:49;;;;;;;9.90;3.72;;;;;;;10.79;97.60;100143.22;6119963;23;20005;-90
2022/09/26 07:34:15;;;;;;;8.95;3.97;;;;;;;10.74;95.80;100129.59;6119735;23;20002;-89
2022/09/26 07:36:40;;;;;;;10.18;3.60;;;;;;;10.88;96.08;100140.31;6120915;23;20081;-89
2022/09/26 07:39:06;;;;;;;10.02;3.50;;;;;;;10.87;95.66;100137.78;6119806;23;20010;-91
2022/09/26 07:41:34;;;;;;;9.45;3.63;;;;;;;10.95;96.97;100143.53;6122995;23;20367;-92
2022/09/26 07:44:02;;;;;;;9.73;3.40;;;;;;;10.85;94.96;100131.81;6119580;23;20009;-91
2022/09/26 07:52:21;;;;;;;7.85;3.38;;;;;;;10.97;95.10;100146.91;6121620;23;20348;-90
2022/09/26 07:54:47;;;;;;;9.95;3.50;;;;;;;10.90;96.29;100127.31;6119076;23;20085;-91
2022/09/26 07:57:41;;;;;;;7.90;3.22;;;;;;;10.90;95.14;100122.97;6120957;23;20443;-92
2022/09/26 08:00:29;;;;;;;8.80;3.40;;;;;;;10.95;95.74;100120.19;6116165;23;20006;-92
2022/09/26 08:03:00;;;;;;;7.18;3.40;;;;;;;11.05;94.25;100132.75;6119854;23;20020;-92
2022/09/26 08:05:25;;;;;;;8.10;3.45;;;;;;;11.09;95.19;100121.38;6122716;23;20324;-91
2022/09/26 08:07:56;;;;;;;7.30;3.20;;;;;;;10.98;94.58;100102.78;6122660;23;20425;-91
2022/09/26 08:10:24;;;;;;;7.35;3.30;;;;;;;11.11;94.79;100112.69;6146706;23;20013;-89
2022/09/26 08:12:49;;;;;;;8.10;3.33;;;;;;;11.24;95.80;100122.56;6121799;23;20566;-90
2022/09/26 08:15:15;;;;;;;6.15;3.28;;;;;;;11.26;93.92;100115.53;6120401;23;20009;-90
2022/09/26 08:17:42;;;;;;;10.38;3.40;;;;;;;11.31;95.03;100110.19;6121427;23;20039;-89
2022/09/26 08:20:17;;;;;;;8.88;3.60;;;;;;;11.27;94.10;100090.44;6123007;23;20013;-89
2022/09/26 08:23:18;;;;;;;7.10;3.38;;;;;;;11.21;94.13;100083.75;6119287;23;20022;-89
2022/09/26 08:25:51;;;;;;;9.57;3.47;;;;;;;11.48;95.32;100110.38;6123064;23;20010;-89
2022/09/26 08:28:36;;;;;;;10.43;3.67;;;;;;;11.58;94.47;100106.53;6121147;23;20444;-90
2022/09/26 08:31:03;;;;;;;5.88;3.00;;;;;;;11.48;93.63;100068.84;6120627;23;20005;-89
2022/09/26 08:33:34;;;;;;;8.85;3.38;;;;;;;11.63;92.74;100089.00;6123277;23;20054;-90
2022/09/26 08:36:15;;;;;;;8.98;3.72;;;;;;;11.62;93.80;100091.66;6119849;23;20021;-90
2022/09/26 08:38:44;;;;;;;6.65;3.20;;;;;;;11.55;93.46;100085.00;6121859;23;20010;-92
2022/09/26 08:41:37;;;;;;;6.75;3.20;;;;;;;11.60;93.46;100091.72;6122232;23;20089;-92
2022/09/26 08:47:48;;;;;;;8.05;3.50;;;;;;;11.54;94.69;100096.31;6060849;23;20015;-90
2022/09/26 08:50:36;;;;;;;8.48;3.25;;;;;;;11.54;93.88;100094.56;6123435;23;20013;-92
2022/09/26 08:53:14;;;;;;;9.07;3.50;;;;;;;11.54;95.01;100094.56;6121500;23;20016;-92
2022/09/26 08:56:03;;;;;;;7.82;3.58;;;;;;;11.42;95.33;100063.91;6121476;23;20458;-90
2022/09/26 08:59:16;;;;;;;8.10;3.42;;;;;;;11.49;94.33;100062.75;6121322;23;20440;-92
2022/09/26 09:01:59;;;;;;;10.20;3.42;;;;;;;11.50;94.39;100061.84;6120754;23;20033;-91
2022/09/26 09:05:01;;;;;;;8.43;3.33;;;;;;;11.53;94.83;100058.31;6120294;23;20069;-92
2022/09/26 09:07:59;;;;;;;9.52;3.60;;;;;;;11.73;94.80;100081.72;6123157;23;20002;-91
2022/09/26 09:11:02;;;;;;;8.02;3.50;;;;;;;11.77;95.13;100088.47;6121511;23;20423;-89
2022/09/26 09:13:57;;;;;;;9.93;3.90;;;;;;;11.78;95.00;100066.81;6121169;23;20009;-91
2022/09/26 09:16:50;;;;;;;7.13;3.50;;;;;;;11.86;96.23;100077.72;6122943;23;20081;-90
2022/09/26 09:19:36;;;;;;;9.25;3.55;;;;;;;11.87;96.15;100079.44;6119823;23;20068;-91
2022/09/26 09:22:46;;;;;;;8.48;4.00;;;;;;;11.84;97.22;100063.97;6116583;23;20105;-91
2022/09/26 09:25:43;;;;;;;6.32;3.80;;;;;;;11.60;97.76;100034.59;6120785;23;20002;-90
2022/09/26 09:28:32;;;;;;;10.15;4.00;;;;;;;11.76;99.89;100055.63;6120641;23;20048;-91
2022/09/26 09:31:14;;;;;;;9.85;4.10;;;;;;;11.69;98.65;100028.19;6121504;23;20085;-91
2022/09/26 09:34:03;;;;;;;10.95;4.07;;;;;;;11.66;98.86;100029.19;6120562;23;20010;-91
2022/09/26 09:37:00;;;;;;;8.93;4.50;;;;;;;11.63;100.00;100026.72;6121390;23;20012;-91
2022/09/26 09:39:32;;;;;;;10.73;4.15;;;;;;;11.59;100.00;100006.13;6122058;23;20033;-91
2022/09/26 09:42:32;;;;;;;10.18;4.13;;;;;;;11.69;99.67;100004.84;6121054;23;20399;-91
2022/09/26 09:45:48;;;;;;;11.60;4.45;;;;;;;11.75;100.00;100002.00;6118413;23;20321;-91
2022/09/26 09:48:14;;;;;;;11.75;4.82;;;;;;;11.79;100.00;99996.66;6092799;23;20409;-91
2022/09/26 09:50:57;;;;;;;9.13;4.10;;;;;;;11.94;100.00;99999.50;6119549;23;20005;-92
2022/09/26 09:53:44;;;;;;;10.07;4.90;;;;;;;11.97;100.00;100001.94;6121836;23;20010;-90
2022/09/26 09:56:40;;;;;;;11.52;5.30;;;;;;;12.02;100.00;99994.78;6120117;23;20014;-90
2022/09/26 10:02:45;;;;;;;8.27;4.55;;;;;;;12.04;100.00;99967.00;6121397;23;20024;-91
2022/09/26 10:05:59;;;;;;;9.20;4.80;;;;;;;12.18;100.00;99975.03;6119255;23;20141;-91
2022/09/26 10:08:56;;;;;;;8.43;4.88;;;;;;;12.12;100.00;99949.34;6144567;23;20037;-91
2022/09/26 10:12:00;;;;;;;12.25;4.95;;;;;;;12.18;100.00;99952.50;6121882;23;20025;-91
2022/09/26 10:18:05;;;;;;;10.80;4.97;;;;;;;12.11;100.00;99932.06;6087747;23;20631;-91
2022/09/26 10:21:14;;;;;;;8.27;5.13;;;;;;;12.28;100.00;99950.34;6088514;23;20016;-92
2022/09/26 10:24:01;;;;;;;10.45;4.47;;;;;;;12.18;100.00;99934.31;6087931;23;20470;-90
2022/09/26 10:29:33;;;;;;;8.98;4.82;;;;;;;12.25;100.00;99945.28;6100938;23;20034;-91
2022/09/26 10:32:02;;;;;;;10.25;4.80;;;;;;;12.15;100.00;99929.25;6116654;23;20013;-90
2022/09/26 10:34:30;;;;;;;9.27;4.97;;;;;;;12.22;100.00;99942.81;6119676;23;20309;-90
2022/09/26 10:36:57;;;;;;;9.85;4.57;;;;;;;12.04;100.00;99915.91;6119549;23;20009;-90
2022/09/26 10:42:37;;;;;;;9.73;4.70;;;;;;;11.96;100.00;99902.41;6121757;23;20577;-91
2022/09/26 10:45:16;;;;;;;9.25;4.50;;;;;;;12.01;100.00;99920.41;6120432;23;20516;-92
2022/09/26 10:47:52;;;;;;;9.48;5.25;;;;;;;11.96;100.00;99910.22;6119746;23;20021;-89
2022/09/26 10:50:26;;;;;;;8.73;5.30;;;;;;;11.91;100.00;99893.16;6115983;23;20112;-91
2022/09/26 10:53:09;;;;;;;9.43;4.90;;;;;;;12.07;100.00;99913.19;6119935;23;20012;-91
2022/09/26 10:55:44;;;;;;;8.18;4.60;;;;;;;11.97;100.00;99906.72;6120690;23;20014;-91
2022/09/26 11:01:25;;;;;;;10.32;5.10;;;;;;;11.83;100.00;99886.53;6116149;23;20045;-92
2022/09/26 11:04:21;;;;;;;;;;;;;;;;;;;;;
2022/09/26 11:07:08;;;;;;;9.88;4.60;;;;;;;11.99;100.00;99886.72;6115059;23;20081;-91
2022/09/26 11:09:38;;;;;;;8.18;4.97;;;;;;;11.86;100.00;99865.66;6121421;23;20013;-90
2022/09/26 11:15:22;;;;;;;9.75;5.25;;;;;;;11.90;100.00;99888.88;6117649;23;20017;-90
2022/09/26 11:17:55;;;;;;;11.60;5.22;;;;;;;11.82;100.00;99874.47;6118485;23;20014;-90
2022/09/26 11:20:43;;;;;;;10.32;4.97;;;;;;;11.97;100.00;99892.88;6121610;23;20060;-90
2022/09/26 11:23:27;;;;;;;9.85;5.10;;;;;;;11.96;100.00;99891.19;6122117;23;20044;-91
2022/09/26 11:26:36;;;;;;;10.57;4.70;;;;;;;11.94;100.00;99886.03;6096558;23;20010;-90
2022/09/26 11:29:35;;;;;;;10.02;5.30;;;;;;;11.93;100.00;99893.94;6122106;23;20002;-90
2022/09/26 11:32:01;;;;;;;8.27;5.00;;;;;;;11.80;100.00;99876.28;6095265;23;20333;-91
2022/09/26 11:34:42;;;;;;;9.73;4.78;;;;;;;11.87;100.00;99884.66;6095034;23;20440;-91
2022/09/26 11:37:29;;;;;;;7.15;4.60;;;;;;;11.73;100.00;99876.59;6095630;23;20029;-90
2022/09/26 11:40:20;;;;;;;7.05;4.50;;;;;;;11.74;100.00;99879.13;6122107;23;20014;-89
2022/09/26 11:43:01;;;;;;;8.30;4.57;;;;;;;11.49;100.00;99861.19;6097569;23;20459;-90
2022/09/26 11:45:54;;;;;;;7.43;4.45;;;;;;;11.60;100.00;99886.66;6097410;23;20041;-90
2022/09/26 11:48:38;;;;;;;8.13;4.78;;;;;;;11.56;100.00;99881.66;6097120;23;20081;-91
2022/09/26 11:51:39;;;;;;;7.50;5.00;;;;;;;11.46;100.00;99870.84;6097380;23;20009;-90
2022/09/26 11:54:39;;;;;;;9.95;5.00;;;;;;;11.51;100.00;99855.94;6123127;23;20056;-90
2022/09/26 11:57:33;;;;;;;8.73;4.78;;;;;;;11.54;100.00;99871.34;6123808;23;20010;-90
2022/09/26 12:00:14;;;;;;;7.07;4.60;;;;;;;11.54;100.00;99857.53;6097020;23;20377;-90
2022/09/26 12:02:39;;;;;;;10.70;5.00;;;;;;;11.53;100.00;99867.09;6121777;23;20029;-90
2022/09/26 12:05:29;;;;;;;8.60;5.03;;;;;;;11.55;100.00;99867.84;6097015;23;20021;-90
2022/09/26 12:08:13;;;;;;;10.80;5.00;;;;;;;11.54;100.00;99868.75;6123563;23;20009;-90
2022/09/26 12:10:55;;;;;;;9.68;5.03;;;;;;;11.53;100.00;99853.28;6095862;23;20541;-90
2022/09/26 12:13:23;;;;;;;8.75;4.88;;;;;;;11.53;100.00;99866.25;6123371;23;20108;-90
2022/09/26 12:16:05;;;;;;;7.15;4.97;;;;;;;11.53;100.00;99861.91;6097174;23;20025;-90
2022/09/26 12:18:52;;;;;;;7.80;4.75;;;;;;;11.54;100.00;99849.75;6122423;23;20002;-91
2022/09/26 12:21:37;;;;;;;10.27;5.25;;;;;;;11.55;100.00;99847.09;6097716;23;20101;-90
2022/09/26 12:24:32;;;;;;;9.73;5.07;;;;;;;11.54;100.00;99837.59;6107051;23;20046;-91
2022/09/26 12:27:16;;;;;;;8.90;4.50;;;;;;;11.52;100.00;99842.03;6121161;23;20025;-90
2022/09/26 12:30:34;;;;;;;8.00;4.72;;;;;;;11.33;100.00;99822.97;6122951;23;20021;-91
2022/09/26 12:33:37;;;;;;;7.40;4.35;;;;;;;11.48;100.00;99843.06;6115969;23;20093;-91
2022/09/26 12:36:30;;;;;;;8.27;4.50;;;;;;;11.49;100.00;99844.75;6121333;23;20014;-90
2022/09/26 12:39:35;;;;;;;7.85;4.22;;;;;;;11.43;100.00;99829.47;6120331;23;20014;-91
2022/09/26 12:42:37;;;;;;;6.18;4.22;;;;;;;11.32;100.00;99801.41;6122510;23;20014;-90
2022/09/26 12:45:37;;;;;;;7.45;4.68;;;;;;;11.38;100.00;99815.84;6122386;23;20005;-91
2022/09/26 12:48:08;;;;;;;8.73;4.53;;;;;;;11.29;100.00;99801.53;6120420;23;20016;-90
2022/09/26 12:51:11;;;;;;;7.43;4.57;;;;;;;11.43;100.00;99813.88;6120681;23;20009;-92
2022/09/26 12:53:55;;;;;;;6.05;4.20;;;;;;;11.40;100.00;99809.66;6121129;23;20089;-91
2022/09/26 12:56:57;;;;;;;8.23;4.60;;;;;;;11.30;100.00;99797.16;6120767;23;20066;-91
2022/09/26 12:59:30;;;;;;;7.93;4.47;;;;;;;11.42;100.00;99810.44;6066757;23;20089;-90
2022/09/26 13:02:18;;;;;;;9.30;4.22;;;;;;;11.41;100.00;99803.56;6122563;23;20006;-91
2022/09/26 13:05:21;;;;;;;7.18;4.45;;;;;;;11.42;100.00;99801.81;6122391;23;20009;-90
2022/09/26 13:08:29;;;;;;;8.48;4.40;;;;;;;11.33;100.00;99791.84;6121119;23;20013;-90